Leni P. — A8XW5 — position and weather

sailwx.info

Track history (hours):
 
Tides and Currents Weather Stations Pressure Air Temp Water Temp Dewpoint Dewpoint Depression Visibility Wind Speed Wind Dir Waves Ship Positions

Leni P.

Last reported at 2015-Sep-01 13:29 UTC. Time now 2015-Sep-04 01:38 UTC.
Position S 25°36' W 045°59'.

Length 274 m; draft 14.3 m.

Type: Tanker. MMSI: 636014986.

Date/timePositionNaut miles runAvg speedWind from/ knotsBaromVisibWave heightAir tempDewpointWater temp
2015-Sep-01 13:29S 25°36' W 045°59'2512.8
2015-Sep-01 11:33S 25°30' W 045°32'1413.5
2015-Sep-01 10:32S 25°26' W 045°18'1313.5
2015-Sep-01 09:33S 25°23' W 045°04'1313.4
2015-Sep-01 08:33S 25°19' W 044°50'1313.1
2015-Sep-01 07:33S 25°16' W 044°35'1312.9
2015-Sep-01 06:33S 25°12' W 044°22'1312.9
2015-Sep-01 05:33S 25°09' W 044°08'1312.9
2015-Sep-01 04:33S 25°05' W 043°54'1312.8
2015-Sep-01 03:34S 25°02' W 043°41'1312.7
2015-Sep-01 02:33S 24°58' W 043°27'1212.5
2015-Sep-01 01:34S 24°55' W 043°14'1212.3
2015-Sep-01 00:33S 24°52' W 043°01'1212.3
2015-Aug-31 23:33S 24°49' W 042°48'  
Track history (hours):
 
Tides and Currents Weather Stations Pressure Air Temp Water Temp Dewpoint Dewpoint Depression Visibility Wind Speed Wind Dir Waves Ship Positions

Leni P.

Last reported at 2015-Sep-01 13:29 UTC. Time now 2015-Sep-04 01:38 UTC.
Position S 25°36' W 045°59'.

Length 274 m; draft 14.3 m.

Type: Tanker. MMSI: 636014986.

Date/timePositionNaut miles runAvg speedWind from/ knotsBaromVisibWave heightAir tempDewpointWater temp
2015-Sep-01 13:29S 25°36' W 045°59'2512.8
2015-Sep-01 11:33S 25°30' W 045°32'1413.5
2015-Sep-01 10:32S 25°26' W 045°18'1313.5
2015-Sep-01 09:33S 25°23' W 045°04'1313.4
2015-Sep-01 08:33S 25°19' W 044°50'1313.1
2015-Sep-01 07:33S 25°16' W 044°35'1312.9
2015-Sep-01 06:33S 25°12' W 044°22'1312.9
2015-Sep-01 05:33S 25°09' W 044°08'1312.9
2015-Sep-01 04:33S 25°05' W 043°54'1312.8
2015-Sep-01 03:34S 25°02' W 043°41'1312.7
2015-Sep-01 02:33S 24°58' W 043°27'1212.5
2015-Sep-01 01:34S 24°55' W 043°14'1212.3
2015-Sep-01 00:33S 24°52' W 043°01'1212.3
2015-Aug-31 23:33S 24°49' W 042°48'  

Dump ship's entire track history